Time;durP1;ratioP1;P1;durP2;ratioP2;P2;SDS_P1;SDS_P2;PMS_P1;PMS_P2;Temp;Humidity;BMP_temperature;BMP_pressure;BME280_temperature;BME280_humidity;BME280_pressure;Samples;Min_cycle;Max_cycle;Signal;HPM_P1;HPM_P2
2022/01/30 00:01:07;;;;;;;25.00;2.33;;;;;;;;;;5063702;28;20079;-59
2022/01/30 00:03:34;;;;;;;25.85;2.55;;;;;;;;;;5064914;28;20353;-56
2022/01/30 00:06:01;;;;;;;23.83;2.65;;;;;;;;;;5060934;28;20121;-57
2022/01/30 00:08:30;;;;;;;21.08;2.97;;;;;;;;;;5066612;28;20056;-58
2022/01/30 00:11:05;;;;;;;24.55;3.42;;;;;;;;;;5060623;28;20048;-59
2022/01/30 00:13:34;;;;;;;30.80;2.60;;;;;;;;;;5066079;28;20055;-55
2022/01/30 00:16:05;;;;;;;27.77;3.00;;;;;;;;;;5062826;28;20060;-57
2022/01/30 00:18:45;;;;;;;14.52;2.35;;;;;;;;;;5068147;28;20135;-56
2022/01/30 00:21:18;;;;;;;14.85;2.38;;;;;;;;;;5061027;28;20059;-55
2022/01/30 00:23:48;;;;;;;23.58;2.80;;;;;;;;;;5061516;28;20057;-56
2022/01/30 00:26:17;;;;;;;18.02;1.98;;;;;;;;;;5055013;28;20120;-56
2022/01/30 00:28:44;;;;;;;18.23;2.30;;;;;;;;;;5067712;28;20124;-59
2022/01/30 00:31:13;;;;;;;20.52;2.42;;;;;;;;;;5059893;28;20103;-59
2022/01/30 00:33:40;;;;;;;20.25;2.97;;;;;;;;;;5065254;28;20538;-55
2022/01/30 00:36:06;;;;;;;22.25;2.47;;;;;;;;;;5056417;28;20075;-56
2022/01/30 00:38:34;;;;;;;16.08;1.80;;;;;;;;;;5067870;28;20084;-57
2022/01/30 00:41:00;;;;;;;20.20;2.50;;;;;;;;;;5067115;28;20159;-56
2022/01/30 00:43:33;;;;;;;34.20;3.80;;;;;;;;;;5061317;28;20057;-56
2022/01/30 00:45:59;;;;;;;27.52;2.80;;;;;;;;;;5063167;28;20106;-56
2022/01/30 00:48:30;;;;;;;11.02;1.42;;;;;;;;;;5056435;28;20072;-58
2022/01/30 00:50:56;;;;;;;18.17;2.67;;;;;;;;;;5064892;28;20167;-59
2022/01/30 00:53:23;;;;;;;29.75;2.85;;;;;;;;;;5060738;28;20129;-59
2022/01/30 00:55:50;;;;;;;23.05;2.25;;;;;;;;;;5066583;28;20044;-56
2022/01/30 00:58:16;;;;;;;19.80;2.70;;;;;;;;;;5059534;28;20053;-57
2022/01/30 01:00:43;;;;;;;22.25;2.17;;;;;;;;;;5066246;28;20052;-55
2022/01/30 01:03:09;;;;;;;19.40;2.47;;;;;;;;;;5058997;28;20045;-59
2022/01/30 01:05:38;;;;;;;26.70;2.10;;;;;;;;;;5067668;28;20048;-59
2022/01/30 01:08:15;;;;;;;14.85;1.85;;;;;;;;;;5064779;28;20158;-59
2022/01/30 01:10:46;;;;;;;11.82;1.75;;;;;;;;;;5070542;28;20053;-59
2022/01/30 01:13:42;;;;;;;23.88;2.47;;;;;;;;;;5057275;28;20084;-58
2022/01/30 01:24:33;;;;;;;11.85;1.60;;;;;;;;;;5065947;28;20053;-59
2022/01/30 01:27:00;;;;;;;15.95;1.65;;;;;;;;;;5069624;28;20049;-56
2022/01/30 01:29:26;;;;;;;14.75;2.97;;;;;;;;;;5064104;28;20047;-59
2022/01/30 01:31:53;;;;;;;19.65;2.30;;;;;;;;;;5072938;28;20072;-60
2022/01/30 01:34:32;;;;;;;16.33;1.83;;;;;;;;;;5064556;28;20059;-60
2022/01/30 01:37:00;;;;;;;13.55;1.50;;;;;;;;;;5047027;28;20053;-56
2022/01/30 01:39:28;;;;;;;18.95;2.30;;;;;;;;;;5036463;28;20114;-56
2022/01/30 01:41:55;;;;;;;18.63;2.00;;;;;;;;;;5047992;28;20060;-56
2022/01/30 01:44:29;;;;;;;9.68;1.73;;;;;;;;;;5043426;28;20071;-60
2022/01/30 01:46:56;;;;;;;25.33;2.00;;;;;;;;;;5048875;28;20092;-59
2022/01/30 01:49:28;;;;;;;17.00;2.38;;;;;;;;;;5044676;28;20049;-55
2022/01/30 01:52:14;;;;;;;22.88;2.25;;;;;;;;;;5050065;28;20057;-60
2022/01/30 01:54:42;;;;;;;18.52;2.13;;;;;;;;;;5043519;28;20048;-60
2022/01/30 01:57:09;;;;;;;16.05;2.25;;;;;;;;;;5049143;28;20147;-58
2022/01/30 01:59:35;;;;;;;20.77;2.05;;;;;;;;;;5043426;28;20126;-59
2022/01/30 02:02:04;;;;;;;17.02;2.00;;;;;;;;;;5049815;28;20060;-60
2022/01/30 02:04:31;;;;;;;20.23;2.35;;;;;;;;;;5042003;28;20046;-56
2022/01/30 02:07:14;;;;;;;11.93;1.63;;;;;;;;;;5044064;28;20061;-57
2022/01/30 02:09:42;;;;;;;16.75;1.85;;;;;;;;;;5042215;28;20048;-59
2022/01/30 02:12:18;;;;;;;17.80;2.40;;;;;;;;;;5049456;28;20055;-59
2022/01/30 02:14:51;;;;;;;14.07;1.60;;;;;;;;;;5039946;28;20057;-59
2022/01/30 02:25:39;;;;;;;19.67;2.53;;;;;;;;;;5040499;28;20265;-59
2022/01/30 02:28:10;;;;;;;19.25;2.03;;;;;;;;;;5049226;28;20214;-59
2022/01/30 02:30:40;;;;;;;18.98;2.33;;;;;;;;;;5043383;28;20063;-59
2022/01/30 02:33:06;;;;;;;23.00;3.00;;;;;;;;;;5049092;28;20048;-58
2022/01/30 02:35:33;;;;;;;29.00;2.80;;;;;;;;;;5044389;28;20067;-59
2022/01/30 02:38:01;;;;;;;14.00;1.65;;;;;;;;;;5039099;28;20141;-59
2022/01/30 02:40:30;;;;;;;16.80;1.98;;;;;;;;;;5049356;28;20057;-59
2022/01/30 02:42:57;;;;;;;10.07;1.73;;;;;;;;;;5043212;28;20061;-60
2022/01/30 02:45:29;;;;;;;;;;;;;;;;;;5048765;28;20050;-59
2022/01/30 02:48:10;;;;;;;19.70;1.92;;;;;;;;;;5042395;28;19925;-59
2022/01/30 02:50:49;;;;;;;21.35;1.73;;;;;;;;;;5048229;28;20487;-59
2022/01/30 02:53:17;;;;;;;11.25;1.65;;;;;;;;;;5039681;28;20060;-57
2022/01/30 02:55:44;;;;;;;17.77;2.05;;;;;;;;;;5047160;28;20126;-59
2022/01/30 02:58:10;;;;;;;11.95;1.52;;;;;;;;;;5042523;28;20056;-59
2022/01/30 03:03:42;;;;;;;10.77;1.30;;;;;;;;;;4956739;23;20063;-55
2022/01/30 03:06:08;;;;;;;16.13;2.60;;;;;;;;;;4985348;28;20058;-57
2022/01/30 03:08:37;;;;;;;18.10;2.05;;;;;;;;;;4957849;28;20055;-54
2022/01/30 03:11:03;;;;;;;11.00;1.20;;;;;;;;;;4966621;28;20058;-56
2022/01/30 03:13:31;;;;;;;11.10;1.40;;;;;;;;;;4953865;28;20054;-53
2022/01/30 03:16:00;;;;;;;11.27;1.53;;;;;;;;;;4967335;28;20050;-57
2022/01/30 03:18:26;;;;;;;;;;;;;;;;;;4976357;28;20059;-54
2022/01/30 03:20:53;;;;;;;17.08;1.73;;;;;;;;;;4982986;28;19922;-56
2022/01/30 03:23:21;;;;;;;11.60;1.30;;;;;;;;;;4966653;28;20138;-56
2022/01/30 03:25:54;;;;;;;17.92;1.90;;;;;;;;;;4960499;28;20051;-57
2022/01/30 03:28:21;;;;;;;11.48;1.40;;;;;;;;;;4982960;28;20074;-56
2022/01/30 03:30:52;;;;;;;9.73;1.35;;;;;;;;;;4958930;28;20043;-54
2022/01/30 03:33:29;;;;;;;22.95;1.60;;;;;;;;;;4967363;28;20053;-56
2022/01/30 03:35:56;;;;;;;12.32;1.42;;;;;;;;;;4961290;28;20063;-56
2022/01/30 03:38:23;;;;;;;10.95;1.58;;;;;;;;;;4969410;28;20055;-53
2022/01/30 03:40:51;;;;;;;13.35;1.55;;;;;;;;;;4963809;28;20117;-59
2022/01/30 03:43:19;;;;;;;7.47;1.48;;;;;;;;;;4967174;28;20058;-56
2022/01/30 03:45:46;;;;;;;13.15;1.38;;;;;;;;;;4983666;28;20059;-50
2022/01/30 03:48:14;;;;;;;11.65;1.42;;;;;;;;;;4962096;28;20055;-55
2022/01/30 03:50:41;;;;;;;20.80;1.58;;;;;;;;;;4968623;28;20058;-53
2022/01/30 03:53:08;;;;;;;14.30;1.50;;;;;;;;;;4961943;28;20058;-55
2022/01/30 03:55:34;;;;;;;21.90;1.40;;;;;;;;;;4968994;28;20065;-53
2022/01/30 03:58:03;;;;;;;8.88;1.10;;;;;;;;;;4978271;28;20113;-56
2022/01/30 04:00:30;;;;;;;11.00;1.05;;;;;;;;;;4969543;28;20055;-55
2022/01/30 04:02:56;;;;;;;11.55;1.30;;;;;;;;;;4959835;28;20146;-52
2022/01/30 04:05:23;;;;;;;10.32;1.35;;;;;;;;;;4981201;28;20110;-59
2022/01/30 04:07:50;;;;;;;14.60;1.20;;;;;;;;;;4965278;28;20070;-60
2022/01/30 04:10:16;;;;;;;7.38;1.48;;;;;;;;;;4957044;28;20054;-53
2022/01/30 04:12:44;;;;;;;9.77;1.35;;;;;;;;;;4965627;28;20141;-59
2022/01/30 04:15:12;;;;;;;10.98;1.20;;;;;;;;;;4957610;28;20051;-57
2022/01/30 04:17:39;;;;;;;;;;;;;;;;;;4982964;28;20054;-57
2022/01/30 04:20:06;;;;;;;13.05;1.60;;;;;;;;;;4973855;28;20500;-56
2022/01/30 04:22:33;;;;;;;7.40;1.10;;;;;;;;;;4964689;28;20070;-55
2022/01/30 04:25:00;;;;;;;20.80;1.70;;;;;;;;;;4963943;28;20075;-60
2022/01/30 04:27:27;;;;;;;11.43;1.30;;;;;;;;;;4960846;28;20054;-55
2022/01/30 04:29:54;;;;;;;9.02;1.10;;;;;;;;;;4981236;28;20082;-56
2022/01/30 04:32:25;;;;;;;16.98;1.35;;;;;;;;;;4957534;28;20070;-57
2022/01/30 04:34:56;;;;;;;8.27;1.27;;;;;;;;;;4966308;28;20073;-59
2022/01/30 04:37:29;;;;;;;10.48;1.30;;;;;;;;;;4957639;28;20138;-56
2022/01/30 04:40:19;;;;;;;11.95;1.63;;;;;;;;;;4965680;28;20054;-55
2022/01/30 04:59:41;;;;;;;9.35;1.17;;;;;;;;;;4977711;28;20061;-56
2022/01/30 05:02:07;;;;;;;6.22;1.35;;;;;;;;;;5004536;28;20054;-59
2022/01/30 05:04:47;;;;;;;11.75;1.35;;;;;;;;;;4985643;28;20159;-58
2022/01/30 05:07:30;;;;;;;12.52;1.10;;;;;;;;;;4987172;28;20333;-57
2022/01/30 05:09:56;;;;;;;10.30;1.52;;;;;;;;;;4983895;28;20094;-58
2022/01/30 05:12:29;;;;;;;12.15;1.60;;;;;;;;;;5002494;28;20042;-59
2022/01/30 05:14:56;;;;;;;11.40;1.15;;;;;;;;;;5005481;28;20062;-59
2022/01/30 05:17:23;;;;;;;12.50;1.33;;;;;;;;;;4983672;28;20125;-56
2022/01/30 05:19:51;;;;;;;17.90;1.42;;;;;;;;;;5005955;28;20138;-58
2022/01/30 05:22:18;;;;;;;11.88;1.38;;;;;;;;;;4999625;28;20140;-56
2022/01/30 05:24:45;;;;;;;9.50;1.25;;;;;;;;;;4989605;28;20065;-58
2022/01/30 05:27:12;;;;;;;17.15;1.70;;;;;;;;;;4983305;28;20058;-59
2022/01/30 05:29:39;;;;;;;21.45;2.13;;;;;;;;;;4989717;28;20066;-55
2022/01/30 05:32:06;;;;;;;17.70;1.55;;;;;;;;;;4983958;28;20061;-56
2022/01/30 05:34:33;;;;;;;9.82;1.65;;;;;;;;;;4989645;28;20050;-56
2022/01/30 05:37:02;;;;;;;11.13;1.52;;;;;;;;;;4984084;28;21125;-55
2022/01/30 05:39:28;;;;;;;17.20;2.00;;;;;;;;;;5006814;28;20058;-56
2022/01/30 05:41:57;;;;;;;9.05;1.27;;;;;;;;;;4986020;28;20058;-59
2022/01/30 05:44:38;;;;;;;10.23;1.42;;;;;;;;;;4989947;28;20490;-58
2022/01/30 05:47:08;;;;;;;13.50;1.15;;;;;;;;;;4987727;28;20058;-57
2022/01/30 05:49:36;;;;;;;15.77;1.50;;;;;;;;;;5004125;28;20074;-59
2022/01/30 05:52:04;;;;;;;17.17;1.53;;;;;;;;;;4987633;28;20081;-59
2022/01/30 05:54:31;;;;;;;18.48;1.90;;;;;;;;;;4982790;28;20054;-59
2022/01/30 05:56:57;;;;;;;12.00;2.03;;;;;;;;;;4989029;28;20097;-52
2022/01/30 05:59:24;;;;;;;14.10;1.75;;;;;;;;;;4983203;28;20467;-58
2022/01/30 06:01:50;;;;;;;19.33;2.42;;;;;;;;;;4988906;28;20061;-54
2022/01/30 06:04:17;;;;;;;12.18;1.00;;;;;;;;;;4983395;28;20050;-57
2022/01/30 06:06:49;;;;;;;16.88;2.22;;;;;;;;;;4988318;28;20146;-59
2022/01/30 06:09:19;;;;;;;9.52;1.52;;;;;;;;;;4983126;28;20104;-56
2022/01/30 06:11:47;;;;;;;14.70;1.70;;;;;;;;;;4988251;28;20120;-59
2022/01/30 06:14:15;;;;;;;18.40;2.63;;;;;;;;;;4982394;28;20062;-58
2022/01/30 06:16:41;;;;;;;10.63;1.80;;;;;;;;;;5005062;28;20404;-54
2022/01/30 06:19:08;;;;;;;20.67;1.70;;;;;;;;;;4982459;28;20146;-56
2022/01/30 06:21:34;;;;;;;20.80;2.42;;;;;;;;;;4989357;28;20087;-58
2022/01/30 06:24:03;;;;;;;13.27;1.88;;;;;;;;;;4983441;28;20060;-58
2022/01/30 06:26:31;;;;;;;13.82;1.95;;;;;;;;;;4988707;28;20132;-57
2022/01/30 06:28:58;;;;;;;12.18;1.67;;;;;;;;;;4998985;28;20053;-56
2022/01/30 06:31:25;;;;;;;10.63;1.42;;;;;;;;;;4988646;28;20054;-56
2022/01/30 06:33:52;;;;;;;19.83;1.92;;;;;;;;;;4987767;28;20058;-56
2022/01/30 06:36:18;;;;;;;14.43;1.80;;;;;;;;;;5000397;28;20108;-56
2022/01/30 06:38:45;;;;;;;8.07;1.85;;;;;;;;;;4988569;28;20108;-57
2022/01/30 06:41:11;;;;;;;10.77;1.90;;;;;;;;;;4997687;28;20106;-58
2022/01/30 06:43:39;;;;;;;12.73;1.50;;;;;;;;;;5005177;28;20042;-56
2022/01/30 06:46:08;;;;;;;17.35;1.58;;;;;;;;;;4982917;28;20058;-54
2022/01/30 06:48:34;;;;;;;16.40;1.60;;;;;;;;;;4987413;28;20075;-56
2022/01/30 06:51:01;;;;;;;9.05;1.45;;;;;;;;;;4982674;28;20145;-58
2022/01/30 06:53:28;;;;;;;16.58;1.92;;;;;;;;;;4986589;28;20142;-58
2022/01/30 06:55:54;;;;;;;10.60;1.38;;;;;;;;;;4980547;28;20046;-56
2022/01/30 06:58:21;;;;;;;10.25;1.77;;;;;;;;;;4987755;28;20114;-56
2022/01/30 07:00:49;;;;;;;11.07;1.77;;;;;;;;;;4997993;28;20066;-60
2022/01/30 07:03:16;;;;;;;17.17;1.10;;;;;;;;;;5002909;28;20054;-53
2022/01/30 07:05:42;;;;;;;13.52;1.70;;;;;;;;;;4981674;28;20053;-58
2022/01/30 07:08:09;;;;;;;15.05;1.70;;;;;;;;;;4988177;28;20100;-59
2022/01/30 07:10:37;;;;;;;14.23;1.60;;;;;;;;;;4981829;28;20038;-56
2022/01/30 07:13:04;;;;;;;10.75;1.63;;;;;;;;;;5004879;28;20057;-60
2022/01/30 07:15:30;;;;;;;9.40;1.38;;;;;;;;;;5003324;28;20102;-59
2022/01/30 07:17:58;;;;;;;12.13;1.73;;;;;;;;;;5001739;28;20065;-57
2022/01/30 07:20:27;;;;;;;10.77;1.42;;;;;;;;;;5003842;28;20054;-58
2022/01/30 07:22:53;;;;;;;16.65;2.28;;;;;;;;;;4997561;28;20049;-58
2022/01/30 07:25:20;;;;;;;21.88;1.90;;;;;;;;;;4987219;28;20144;-57
2022/01/30 07:27:46;;;;;;;19.77;1.70;;;;;;;;;;4981335;28;20134;-55
2022/01/30 07:30:13;;;;;;;27.35;2.33;;;;;;;;;;4987061;28;20058;-59
2022/01/30 07:32:41;;;;;;;13.52;1.85;;;;;;;;;;4997534;28;20059;-56
2022/01/30 07:35:09;;;;;;;18.60;1.70;;;;;;;;;;5003437;28;20466;-57
2022/01/30 07:37:37;;;;;;;16.42;1.58;;;;;;;;;;4997848;28;20058;-59
2022/01/30 07:40:04;;;;;;;5.90;0.98;;;;;;;;;;4986877;28;20057;-56
2022/01/30 07:42:30;;;;;;;11.93;1.83;;;;;;;;;;4981598;28;20065;-59
2022/01/30 07:44:57;;;;;;;24.27;2.10;;;;;;;;;;5002091;28;20391;-58
2022/01/30 07:47:23;;;;;;;15.32;1.55;;;;;;;;;;4981116;28;20294;-59
2022/01/30 07:49:51;;;;;;;13.10;1.73;;;;;;;;;;4987068;28;20058;-59
2022/01/30 07:52:20;;;;;;;17.45;2.15;;;;;;;;;;4980102;28;20062;-58
2022/01/30 07:54:46;;;;;;;14.60;1.67;;;;;;;;;;4986954;28;20050;-52
2022/01/30 07:57:14;;;;;;;21.52;2.05;;;;;;;;;;4983020;28;20097;-56
2022/01/30 07:59:40;;;;;;;10.10;1.63;;;;;;;;;;4983604;28;20170;-59
2022/01/30 08:02:07;;;;;;;15.52;1.65;;;;;;;;;;4983791;28;20091;-58
2022/01/30 08:04:33;;;;;;;18.27;1.83;;;;;;;;;;4996060;28;20058;-57
2022/01/30 08:07:01;;;;;;;17.95;2.42;;;;;;;;;;4987260;28;20058;-56
2022/01/30 08:09:32;;;;;;;9.80;1.35;;;;;;;;;;4981575;28;20054;-55
2022/01/30 08:11:59;;;;;;;20.92;1.92;;;;;;;;;;4986923;28;20059;-57
2022/01/30 08:14:26;;;;;;;12.10;1.57;;;;;;;;;;4980906;28;20118;-58
2022/01/30 08:16:53;;;;;;;10.23;1.35;;;;;;;;;;4990680;28;20061;-56
2022/01/30 08:19:21;;;;;;;22.83;2.20;;;;;;;;;;4984942;28;20054;-59
2022/01/30 08:21:48;;;;;;;10.55;1.63;;;;;;;;;;4990621;28;20062;-58
2022/01/30 08:24:16;;;;;;;13.10;1.45;;;;;;;;;;4984806;28;20061;-58
2022/01/30 08:26:44;;;;;;;9.35;1.25;;;;;;;;;;4990694;28;20054;-56
2022/01/30 08:29:10;;;;;;;7.90;1.40;;;;;;;;;;4985178;28;20062;-57
2022/01/30 08:31:37;;;;;;;10.32;1.63;;;;;;;;;;5006778;28;20078;-57
2022/01/30 08:34:04;;;;;;;17.33;2.20;;;;;;;;;;5001972;28;20050;-58
2022/01/30 08:36:30;;;;;;;13.70;2.13;;;;;;;;;;4992020;28;20049;-59
2022/01/30 08:38:56;;;;;;;21.25;1.90;;;;;;;;;;4985504;28;20101;-55
2022/01/30 08:41:23;;;;;;;15.50;2.55;;;;;;;;;;5007340;28;20064;-59
2022/01/30 08:43:52;;;;;;;10.93;1.70;;;;;;;;;;5007860;28;20112;-59
2022/01/30 08:46:20;;;;;;;20.17;3.17;;;;;;;;;;5001812;28;20046;-59
2022/01/30 08:48:47;;;;;;;24.58;3.38;;;;;;;;;;4989991;28;20054;-58
2022/01/30 08:51:14;;;;;;;16.88;2.95;;;;;;;;;;5000571;28;20058;-59
2022/01/30 08:53:41;;;;;;;16.00;2.03;;;;;;;;;;4987830;28;20074;-55
2022/01/30 08:56:07;;;;;;;8.05;1.40;;;;;;;;;;4982587;28;20145;-57
2022/01/30 08:58:34;;;;;;;12.07;1.95;;;;;;;;;;4986862;28;20050;-56
2022/01/30 09:01:02;;;;;;;9.52;1.52;;;;;;;;;;4982980;28;20066;-59
2022/01/30 09:03:30;;;;;;;11.45;1.65;;;;;;;;;;4988513;28;20050;-56
2022/01/30 09:05:57;;;;;;;15.43;2.20;;;;;;;;;;4998043;28;20054;-58
2022/01/30 09:08:23;;;;;;;12.57;1.95;;;;;;;;;;4988568;28;20507;-56
2022/01/30 09:10:50;;;;;;;14.15;1.55;;;;;;;;;;4982253;28;20053;-56
2022/01/30 09:13:17;;;;;;;24.70;2.53;;;;;;;;;;4988161;28;20109;-59
2022/01/30 09:15:43;;;;;;;20.25;2.33;;;;;;;;;;4979875;28;20057;-59
2022/01/30 09:18:11;;;;;;;14.93;2.08;;;;;;;;;;4988366;28;20138;-56
2022/01/30 09:20:39;;;;;;;24.67;2.65;;;;;;;;;;4981598;28;20069;-56
2022/01/30 09:23:06;;;;;;;13.70;2.28;;;;;;;;;;5004247;28;20054;-54
2022/01/30 09:25:33;;;;;;;13.40;1.88;;;;;;;;;;5002093;28;20061;-57
2022/01/30 09:27:59;;;;;;;27.63;2.20;;;;;;;;;;5002488;28;20415;-53
2022/01/30 09:30:26;;;;;;;21.02;2.40;;;;;;;;;;4988443;28;20351;-56
2022/01/30 09:32:53;;;;;;;30.48;2.15;;;;;;;;;;4982596;28;20054;-55
2022/01/30 09:35:21;;;;;;;25.83;2.25;;;;;;;;;;5004087;28;20104;-57
2022/01/30 09:37:48;;;;;;;16.13;2.10;;;;;;;;;;4982166;28;20050;-55
2022/01/30 09:40:17;;;;;;;24.50;2.70;;;;;;;;;;4987633;28;20313;-55
2022/01/30 09:42:45;;;;;;;;;;;;;;;;;;4982546;28;20081;-53
2022/01/30 09:45:15;;;;;;;10.20;2.38;;;;;;;;;;4986405;28;19925;-53
2022/01/30 09:47:42;;;;;;;25.15;2.58;;;;;;;;;;4982659;28;20050;-50
2022/01/30 09:50:09;;;;;;;22.92;2.60;;;;;;;;;;4988765;28;20057;-52
2022/01/30 09:52:38;;;;;;;17.95;1.88;;;;;;;;;;4982447;28;20042;-50
2022/01/30 09:55:06;;;;;;;18.52;2.65;;;;;;;;;;5004123;28;20403;-55
2022/01/30 09:57:33;;;;;;;25.17;2.35;;;;;;;;;;4982456;28;20038;-56
2022/01/30 10:00:02;;;;;;;35.92;2.45;;;;;;;;;;4988431;28;20088;-55
2022/01/30 10:02:29;;;;;;;19.55;2.47;;;;;;;;;;4981973;28;20081;-56
2022/01/30 10:04:56;;;;;;;23.13;2.05;;;;;;;;;;4988104;28;20066;-55
2022/01/30 10:07:26;;;;;;;25.65;3.17;;;;;;;;;;4982217;28;20058;-54
2022/01/30 10:10:06;;;;;;;20.52;3.28;;;;;;;;;;5004455;28;20054;-54
2022/01/30 10:12:34;;;;;;;24.08;3.40;;;;;;;;;;4973340;28;20057;-57
2022/01/30 10:15:01;;;;;;;23.60;2.50;;;;;;;;;;4988611;28;20061;-60
2022/01/30 10:17:30;;;;;;;10.55;1.80;;;;;;;;;;4988928;28;20050;-58
2022/01/30 10:20:00;;;;;;;15.60;1.98;;;;;;;;;;4998562;28;20069;-59
2022/01/30 10:22:28;;;;;;;24.30;1.90;;;;;;;;;;4988461;28;20142;-59
2022/01/30 10:24:56;;;;;;;29.05;3.25;;;;;;;;;;4983076;28;20128;-58
2022/01/30 10:27:24;;;;;;;31.65;2.70;;;;;;;;;;5005777;28;20142;-57
2022/01/30 10:29:57;;;;;;;18.40;2.38;;;;;;;;;;4984159;28;20530;-57
2022/01/30 10:32:24;;;;;;;23.45;2.63;;;;;;;;;;4987279;28;20141;-58
2022/01/30 10:34:57;;;;;;;19.60;2.25;;;;;;;;;;4983017;28;20133;-60
2022/01/30 10:37:24;;;;;;;25.70;3.03;;;;;;;;;;4987329;28;20054;-57
2022/01/30 10:39:57;;;;;;;32.30;2.72;;;;;;;;;;4982453;28;20062;-55
2022/01/30 10:42:39;;;;;;;24.58;2.40;;;;;;;;;;4987377;28;20073;-57
2022/01/30 10:45:10;;;;;;;35.65;4.53;;;;;;;;;;4998689;28;20492;-56
2022/01/30 10:47:37;;;;;;;23.67;2.78;;;;;;;;;;4988123;28;20060;-59
2022/01/30 10:50:08;;;;;;;28.33;3.25;;;;;;;;;;4997106;28;20062;-57
2022/01/30 10:52:47;;;;;;;19.35;2.65;;;;;;;;;;4988996;28;20062;-55
2022/01/30 10:55:15;;;;;;;16.05;2.38;;;;;;;;;;4983246;28;20077;-57
2022/01/30 10:57:42;;;;;;;25.83;2.55;;;;;;;;;;4986992;28;20506;-56
2022/01/30 11:00:09;;;;;;;20.63;2.22;;;;;;;;;;4998825;28;20053;-56
2022/01/30 11:02:39;;;;;;;35.47;4.53;;;;;;;;;;4986464;28;20058;-56
2022/01/30 11:05:10;;;;;;;27.42;3.33;;;;;;;;;;4982739;28;20074;-65
2022/01/30 11:07:37;;;;;;;24.55;2.85;;;;;;;;;;4988826;28;20047;-59
2022/01/30 11:10:08;;;;;;;24.30;2.65;;;;;;;;;;4999802;28;20050;-66
2022/01/30 11:12:42;;;;;;;27.77;2.65;;;;;;;;;;4988535;28;20058;-62
2022/01/30 11:15:22;;;;;;;19.55;2.53;;;;;;;;;;4998363;28;20149;-62
2022/01/30 11:17:49;;;;;;;20.85;2.78;;;;;;;;;;4987622;28;20058;-62
2022/01/30 11:20:17;;;;;;;32.30;3.03;;;;;;;;;;4982215;28;20060;-62
2022/01/30 11:22:46;;;;;;;19.15;2.63;;;;;;;;;;5003597;28;20124;-61
2022/01/30 11:25:14;;;;;;;33.60;3.17;;;;;;;;;;5000895;28;20047;-61
2022/01/30 11:27:43;;;;;;;18.95;2.28;;;;;;;;;;5001510;28;20101;-61
2022/01/30 11:30:10;;;;;;;22.17;3.50;;;;;;;;;;4987580;28;20054;-62
2022/01/30 11:32:44;;;;;;;24.10;4.55;;;;;;;;;;4997492;28;20054;-61
2022/01/30 11:35:11;;;;;;;28.15;2.97;;;;;;;;;;4986815;28;20057;-61
2022/01/30 11:37:38;;;;;;;35.88;3.10;;;;;;;;;;4982196;28;20054;-62
2022/01/30 11:40:15;;;;;;;20.60;2.33;;;;;;;;;;4986677;28;20046;-62
2022/01/30 11:42:48;;;;;;;30.42;3.75;;;;;;;;;;4981692;28;20050;-61
2022/01/30 11:45:17;;;;;;;28.13;3.17;;;;;;;;;;5004505;28;20065;-62
2022/01/30 11:47:45;;;;;;;15.20;1.88;;;;;;;;;;4982069;28;20055;-61
2022/01/30 11:50:13;;;;;;;27.02;2.63;;;;;;;;;;4986695;28;20054;-61
2022/01/30 11:52:51;;;;;;;33.53;3.20;;;;;;;;;;4980487;28;20070;-60
2022/01/30 11:55:36;;;;;;;29.55;2.65;;;;;;;;;;5002334;28;20046;-61
2022/01/30 11:58:04;;;;;;;31.15;4.28;;;;;;;;;;4997937;28;20141;-60
2022/01/30 12:00:35;;;;;;;23.23;2.30;;;;;;;;;;4987047;28;20054;-59
2022/01/30 12:03:21;;;;;;;36.15;2.83;;;;;;;;;;4994784;28;20065;-60
2022/01/30 12:05:47;;;;;;;19.48;3.33;;;;;;;;;;4986236;28;20055;-60
2022/01/30 12:08:28;;;;;;;27.50;3.47;;;;;;;;;;4981276;28;20124;-60
2022/01/30 12:10:55;;;;;;;26.50;3.17;;;;;;;;;;4982637;28;20102;-60
2022/01/30 12:13:37;;;;;;;31.05;4.05;;;;;;;;;;4988064;28;20058;-60
2022/01/30 12:16:05;;;;;;;8.63;1.38;;;;;;;;;;5002710;28;20054;-60
2022/01/30 12:18:44;;;;;;;24.80;3.08;;;;;;;;;;4997388;28;20043;-60
2022/01/30 12:21:16;;;;;;;19.90;2.60;;;;;;;;;;4987316;28;20054;-60
2022/01/30 12:23:44;;;;;;;35.35;1.95;;;;;;;;;;4981141;28;20058;-60
2022/01/30 12:26:14;;;;;;;15.03;2.13;;;;;;;;;;5001597;28;20065;-60
2022/01/30 12:28:42;;;;;;;18.08;2.90;;;;;;;;;;4979182;28;20042;-60
2022/01/30 12:31:26;;;;;;;29.77;3.20;;;;;;;;;;4986330;28;20086;-60
2022/01/30 12:34:00;;;;;;;38.90;3.53;;;;;;;;;;4981403;28;20081;-60
2022/01/30 12:36:27;;;;;;;35.42;3.13;;;;;;;;;;4986455;28;20050;-61
2022/01/30 12:38:55;;;;;;;22.10;3.15;;;;;;;;;;4980187;28;20043;-60
2022/01/30 12:41:23;;;;;;;31.52;2.97;;;;;;;;;;4986505;28;20054;-60
2022/01/30 12:43:54;;;;;;;21.17;3.00;;;;;;;;;;4996447;28;20050;-60
2022/01/30 12:46:25;;;;;;;16.80;2.95;;;;;;;;;;4986262;28;20061;-61
2022/01/30 12:49:01;;;;;;;22.02;3.55;;;;;;;;;;4980501;28;20046;-60
2022/01/30 12:51:28;;;;;;;21.35;3.08;;;;;;;;;;5000747;28;20058;-61
2022/01/30 12:53:56;;;;;;;23.73;2.45;;;;;;;;;;4979955;28;20050;-60
2022/01/30 12:56:23;;;;;;;;;;;;;;;;;;5002904;28;20050;-60
2022/01/30 12:58:50;;;;;;;16.42;1.73;;;;;;;;;;5002493;28;19936;-60
2022/01/30 13:01:17;;;;;;;19.27;2.67;;;;;;;;;;4995698;28;20070;-60
2022/01/30 13:03:45;;;;;;;24.55;3.28;;;;;;;;;;4988641;28;20064;-60
2022/01/30 13:06:13;;;;;;;19.83;2.45;;;;;;;;;;4982506;28;20141;-60
2022/01/30 13:08:51;;;;;;;17.33;2.13;;;;;;;;;;5004136;28;20144;-60
2022/01/30 13:11:18;;;;;;;22.27;2.17;;;;;;;;;;5000490;28;20140;-61
2022/01/30 13:13:55;;;;;;;19.88;3.03;;;;;;;;;;4989620;28;20065;-61
2022/01/30 13:16:22;;;;;;;29.38;3.65;;;;;;;;;;4999549;28;20058;-60
2022/01/30 13:18:48;;;;;;;21.92;2.38;;;;;;;;;;4988871;28;20062;-60
2022/01/30 13:21:21;;;;;;;21.75;2.22;;;;;;;;;;4982283;28;20109;-60
2022/01/30 13:23:48;;;;;;;23.70;2.60;;;;;;;;;;4987357;28;20065;-60
2022/01/30 13:26:28;;;;;;;25.33;2.97;;;;;;;;;;4982532;28;20432;-60
2022/01/30 13:28:54;;;;;;;17.48;2.70;;;;;;;;;;5003899;28;20133;-60
2022/01/30 13:31:21;;;;;;;28.55;2.90;;;;;;;;;;4981679;28;20152;-60
2022/01/30 13:34:06;;;;;;;23.15;2.63;;;;;;;;;;5003491;28;20081;-60
2022/01/30 13:36:34;;;;;;;21.77;3.00;;;;;;;;;;4998230;28;20308;-60
2022/01/30 13:39:05;;;;;;;23.63;3.20;;;;;;;;;;4987462;28;20108;-60
2022/01/30 13:41:35;;;;;;;25.05;2.22;;;;;;;;;;4981390;28;20054;-60
2022/01/30 13:44:11;;;;;;;22.98;2.65;;;;;;;;;;4989527;28;20054;-60
2022/01/30 13:46:58;;;;;;;33.80;3.97;;;;;;;;;;4982010;28;20112;-60
2022/01/30 13:49:25;;;;;;;20.07;2.33;;;;;;;;;;5004717;28;20054;-60
2022/01/30 13:52:06;;;;;;;24.77;3.38;;;;;;;;;;4983605;28;20042;-60
2022/01/30 13:54:36;;;;;;;24.48;2.63;;;;;;;;;;5001798;28;20085;-60
2022/01/30 13:57:04;;;;;;;21.63;2.60;;;;;;;;;;4982423;28;20058;-60
2022/01/30 13:59:30;;;;;;;28.98;2.80;;;;;;;;;;5004810;28;20082;-60
2022/01/30 14:01:58;;;;;;;28.48;3.65;;;;;;;;;;4983491;28;20050;-59
2022/01/30 14:04:24;;;;;;;14.63;2.45;;;;;;;;;;5003814;28;20062;-59
2022/01/30 14:06:55;;;;;;;23.08;3.53;;;;;;;;;;4980534;28;20046;-55
2022/01/30 14:09:25;;;;;;;21.63;2.70;;;;;;;;;;4987285;28;20105;-55
2022/01/30 14:12:03;;;;;;;21.08;2.42;;;;;;;;;;4982706;28;20065;-55
2022/01/30 14:14:31;;;;;;;13.27;2.00;;;;;;;;;;4988917;28;20058;-57
2022/01/30 14:17:01;;;;;;;23.90;3.20;;;;;;;;;;5000866;28;20062;-53
2022/01/30 14:19:30;;;;;;;27.63;3.25;;;;;;;;;;4985570;28;20078;-57
2022/01/30 14:22:11;;;;;;;32.45;3.30;;;;;;;;;;4985131;28;20114;-54
2022/01/30 14:24:46;;;;;;;22.10;2.35;;;;;;;;;;4985191;28;20063;-59
2022/01/30 14:27:14;;;;;;;26.58;2.80;;;;;;;;;;4968816;28;20055;-57
2022/01/30 14:29:41;;;;;;;15.23;2.58;;;;;;;;;;4981730;28;20150;-58
2022/01/30 14:32:09;;;;;;;25.88;2.03;;;;;;;;;;4987126;28;20519;-57
2022/01/30 14:34:36;;;;;;;17.80;2.08;;;;;;;;;;4980648;28;20057;-54
2022/01/30 14:37:03;;;;;;;15.82;2.47;;;;;;;;;;5004100;28;20090;-54
2022/01/30 14:39:31;;;;;;;21.77;2.87;;;;;;;;;;4984170;28;20049;-56
2022/01/30 14:41:58;;;;;;;24.67;3.33;;;;;;;;;;4986596;28;20065;-55
2022/01/30 14:44:26;;;;;;;36.05;5.25;;;;;;;;;;4998759;28;20081;-59
2022/01/30 14:46:53;;;;;;;14.90;2.50;;;;;;;;;;4988099;28;20058;-54
2022/01/30 14:49:19;;;;;;;16.40;2.22;;;;;;;;;;4982195;28;20057;-57
2022/01/30 14:51:46;;;;;;;30.90;2.72;;;;;;;;;;4989074;28;20082;-57
2022/01/30 14:54:14;;;;;;;20.48;2.17;;;;;;;;;;4982878;28;20086;-57
2022/01/30 14:56:40;;;;;;;20.45;2.20;;;;;;;;;;4987657;28;20047;-59
2022/01/30 14:59:07;;;;;;;19.70;2.38;;;;;;;;;;4997157;28;20107;-54
2022/01/30 15:01:35;;;;;;;15.25;1.92;;;;;;;;;;5000558;28;20126;-61
2022/01/30 15:04:01;;;;;;;14.90;2.30;;;;;;;;;;4980989;28;21504;-59
2022/01/30 15:06:28;;;;;;;14.45;2.08;;;;;;;;;;4987536;28;20156;-59
2022/01/30 15:08:55;;;;;;;19.13;2.38;;;;;;;;;;4986787;28;20062;-59
2022/01/30 15:11:21;;;;;;;23.10;2.15;;;;;;;;;;5001896;28;20046;-54
2022/01/30 15:13:49;;;;;;;16.23;2.28;;;;;;;;;;4986339;28;20054;-55
2022/01/30 15:16:22;;;;;;;27.40;3.17;;;;;;;;;;4980065;28;20062;-59
2022/01/30 15:18:50;;;;;;;11.77;2.35;;;;;;;;;;5001337;28;20058;-58
2022/01/30 15:21:17;;;;;;;20.23;2.53;;;;;;;;;;4980989;28;20058;-57